TimeCEST,TemperatureF,Dew PointF,Humidity,Sea Level PressureIn,VisibilityMPH,Wind Direction,Wind SpeedMPH,Gust SpeedMPH,PrecipitationIn,Events,Conditions,WindDirDegrees,DateUTC
12:20 AM,60.8,60.8,100,30.15,-9999.0,SW,4.6,-,N/A,,Clear,220,2012-10-05 22:20:00
12:50 AM,60.8,59.0,94,30.15,-9999.0,SSW,4.6,-,N/A,,Clear,210,2012-10-05 22:50:00
1:20 AM,60.8,59.0,94,30.15,-9999.0,South,4.6,-,N/A,,Clear,190,2012-10-05 23:20:00
1:50 AM,59.0,57.2,94,30.15,-9999.0,South,2.3,-,N/A,,Clear,190,2012-10-05 23:50:00
2:20 AM,57.2,57.2,100,30.15,-9999.0,Variable,1.2,-,N/A,,Clear,0,2012-10-06 00:20:00
2:50 AM,59.0,57.2,94,30.15,-9999.0,SW,5.8,-,N/A,,Clear,230,2012-10-06 00:50:00
3:20 AM,59.0,57.2,94,30.12,-9999.0,SW,3.5,-,N/A,,Clear,230,2012-10-06 01:20:00
3:50 AM,57.2,57.2,100,30.12,-9999.0,SW,4.6,-,N/A,,Clear,220,2012-10-06 01:50:00
4:20 AM,57.2,57.2,100,30.12,-9999.0,SSW,4.6,-,N/A,,Clear,210,2012-10-06 02:20:00
4:50 AM,57.2,57.2,100,30.12,-9999.0,Calm,Calm,-,N/A,,Clear,0,2012-10-06 02:50:00
5:20 AM,57.2,57.2,100,30.15,-9999.0,SSW,4.6,-,N/A,,Clear,210,2012-10-06 03:20:00
5:50 AM,57.2,55.4,94,30.15,-9999.0,SSW,3.5,-,N/A,,Clear,210,2012-10-06 03:50:00
6:20 AM,57.2,55.4,94,30.15,-9999.0,SW,2.3,-,N/A,,Clear,220,2012-10-06 04:20:00
6:50 AM,57.2,57.2,100,30.15,-9999.0,SSW,4.6,-,N/A,,Clear,200,2012-10-06 04:50:00
7:20 AM,57.2,55.4,94,30.15,-9999.0,Variable,2.3,-,N/A,,Clear,0,2012-10-06 05:20:00
7:50 AM,55.4,55.4,100,30.15,6.2,Variable,1.2,-,N/A,,Partly Cloudy,0,2012-10-06 05:50:00
8:20 AM,59.0,57.2,94,30.15,6.2,SSW,3.5,-,N/A,,Partly Cloudy,200,2012-10-06 06:20:00
8:50 AM,60.8,59.0,94,30.15,-9999.0,SW,3.5,-,N/A,,Clear,220,2012-10-06 06:50:00
9:20 AM,62.6,59.0,88,30.15,-9999.0,WSW,3.5,-,N/A,,Clear,250,2012-10-06 07:20:00
9:50 AM,66.2,60.8,83,30.15,-9999.0,WSW,3.5,-,N/A,,Clear,240,2012-10-06 07:50:00
10:20 AM,68.0,60.8,78,30.15,-9999.0,Variable,2.3,-,N/A,,Clear,0,2012-10-06 08:20:00
10:50 AM,71.6,60.8,69,30.15,-9999.0,Variable,1.2,-,N/A,,Clear,0,2012-10-06 08:50:00
11:20 AM,73.4,64.4,73,30.15,-9999.0,Variable,2.3,-,N/A,,Clear,0,2012-10-06 09:20:00
11:50 AM,75.2,64.4,69,30.15,-9999.0,NNE,4.6,-,N/A,,Clear,30,2012-10-06 09:50:00
12:20 PM,77.0,66.2,69,30.12,-9999.0,ENE,8.1,-,N/A,,Clear,60,2012-10-06 10:20:00
12:50 PM,78.8,66.2,65,30.12,-9999.0,ENE,8.1,-,N/A,,Clear,60,2012-10-06 10:50:00
1:20 PM,78.8,64.4,61,30.12,-9999.0,ENE,9.2,-,N/A,,Clear,60,2012-10-06 11:20:00
1:50 PM,80.6,66.2,61,30.12,-9999.0,NE,9.2,-,N/A,,Clear,50,2012-10-06 11:50:00
2:20 PM,80.6,66.2,61,30.09,-9999.0,ENE,10.4,-,N/A,,Clear,60,2012-10-06 12:20:00
2:50 PM,80.6,66.2,61,30.09,-9999.0,ENE,10.4,-,N/A,,Clear,70,2012-10-06 12:50:00
3:20 PM,78.8,66.2,65,30.09,-9999.0,ENE,10.4,-,N/A,,Clear,70,2012-10-06 13:20:00
3:50 PM,78.8,66.2,65,30.09,-9999.0,East,10.4,-,N/A,,Clear,80,2012-10-06 13:50:00
4:20 PM,78.8,66.2,65,30.09,-9999.0,East,9.2,-,N/A,,Clear,80,2012-10-06 14:20:00
4:50 PM,77.0,68.0,74,30.09,-9999.0,ENE,10.4,-,N/A,,Clear,70,2012-10-06 14:50:00
5:20 PM,77.0,68.0,74,30.09,-9999.0,East,8.1,-,N/A,,Clear,80,2012-10-06 15:20:00
5:50 PM,77.0,66.2,69,30.09,-9999.0,East,6.9,-,N/A,,Clear,90,2012-10-06 15:50:00
6:20 PM,75.2,68.0,78,30.09,-9999.0,East,5.8,-,N/A,,Clear,80,2012-10-06 16:20:00
6:50 PM,73.4,66.2,78,30.09,-9999.0,ENE,3.5,-,N/A,,Clear,70,2012-10-06 16:50:00
7:20 PM,71.6,66.2,83,30.12,-9999.0,Variable,2.3,-,N/A,,Clear,0,2012-10-06 17:20:00
7:50 PM,69.8,66.2,88,30.12,-9999.0,North,3.5,-,N/A,,Clear,350,2012-10-06 17:50:00
8:20 PM,69.8,68.0,94,30.12,-9999.0,ENE,2.3,-,N/A,,Clear,60,2012-10-06 18:20:00
8:50 PM,68.0,66.2,94,30.12,-9999.0,Variable,2.3,-,N/A,,Clear,0,2012-10-06 18:50:00
9:20 PM,68.0,66.2,94,30.12,-9999.0,South,4.6,-,N/A,,Clear,170,2012-10-06 19:20:00
9:50 PM,66.2,64.4,94,30.12,-9999.0,SW,2.3,-,N/A,,Clear,220,2012-10-06 19:50:00
10:20 PM,66.2,62.6,88,30.12,-9999.0,SW,3.5,-,N/A,,Clear,220,2012-10-06 20:20:00
10:50 PM,62.6,60.8,94,30.12,-9999.0,Variable,1.2,-,N/A,,Clear,0,2012-10-06 20:50:00
11:20 PM,64.4,62.6,94,30.12,-9999.0,SSW,3.5,-,N/A,,Clear,200,2012-10-06 21:20:00
11:50 PM,62.6,62.6,100,30.12,-9999.0,WSW,2.3,-,N/A,,Clear,250,2012-10-06 21:50:00